Time;durP1;ratioP1;P1;durP2;ratioP2;P2;SDS_P1;SDS_P2;PMS_P1;PMS_P2;Temp;Humidity;BMP_temperature;BMP_pressure;BME280_temperature;BME280_humidity;BME280_pressure;Samples;Min_cycle;Max_cycle;Signal;HPM_P1;HPM_P2
2023/02/20 00:00:30;;;;;;;8.82;6.13;;;7.00;83.50;;;;;;9175577;19;20018;-63
2023/02/20 00:03:36;;;;;;;12.75;6.18;;;7.00;83.50;;;;;;9174461;19;20041;-63
2023/02/20 00:06:40;;;;;;;;;;;7.10;83.60;;;;;;9176483;19;20015;-63
2023/02/20 00:09:48;;;;;;;9.52;6.03;;;7.00;83.60;;;;;;9175559;19;19918;-63
2023/02/20 00:12:52;;;;;;;;;;;7.00;83.50;;;;;;9173578;19;20086;-64
2023/02/20 00:15:59;;;;;;;15.13;6.95;;;7.00;83.50;;;;;;9175599;19;19930;-63
2023/02/20 00:19:04;;;;;;;9.38;5.78;;;7.00;83.40;;;;;;9170622;19;20456;-63
2023/02/20 00:22:10;;;;;;;13.20;5.93;;;7.00;83.60;;;;;;9175754;19;20637;-65
2023/02/20 00:25:14;;;;;;;9.60;6.00;;;7.00;83.60;;;;;;9174068;19;20010;-63
2023/02/20 00:28:20;;;;;;;8.98;6.40;;;6.90;83.60;;;;;;9183173;19;20077;-65
2023/02/20 00:31:25;;;;;;;;;;;6.90;83.70;;;;;;9184299;19;20011;-64
2023/02/20 00:34:31;;;;;;;9.40;6.63;;;6.90;83.70;;;;;;9183250;19;19923;-62
2023/02/20 00:37:35;;;;;;;;;;;6.90;83.70;;;;;;9184154;19;20039;-64
2023/02/20 00:40:41;;;;;;;11.73;5.85;;;6.90;83.70;;;;;;9181081;19;19922;-62
2023/02/20 00:43:44;;;;;;;;;;;6.90;83.70;;;;;;9182845;19;20420;-62
2023/02/20 00:46:52;;;;;;;10.00;6.00;;;6.90;83.70;;;;;;9182214;19;19914;-63
2023/02/20 00:49:56;;;;;;;13.50;7.65;;;6.90;83.70;;;;;;9181226;19;20022;-62
2023/02/20 00:53:02;;;;;;;11.90;6.15;;;6.90;83.70;;;;;;9182583;19;20010;-63
2023/02/20 00:56:06;;;;;;;;;;;6.90;83.80;;;;;;9183212;19;20010;-62
2023/02/20 00:59:12;;;;;;;12.60;5.60;;;6.90;83.90;;;;;;9180525;19;19929;-63
2023/02/20 01:02:19;;;;;;;11.45;6.43;;;6.90;83.80;;;;;;9182130;19;20106;-62
2023/02/20 01:05:26;;;;;;;9.65;5.70;;;6.90;83.90;;;;;;9177684;19;20022;-63
2023/02/20 01:08:30;;;;;;;9.85;5.32;;;6.90;83.90;;;;;;9181896;19;20021;-63
2023/02/20 01:11:36;;;;;;;12.48;6.50;;;6.90;84.00;;;;;;9179176;19;20046;-61
2023/02/20 01:14:40;;;;;;;;;;;6.90;84.00;;;;;;9182747;19;20766;-64
2023/02/20 01:17:48;;;;;;;11.20;5.75;;;6.90;84.10;;;;;;9180246;19;19927;-63
2023/02/20 01:20:53;;;;;;;13.65;6.90;;;6.90;83.90;;;;;;9177093;19;20015;-64
2023/02/20 01:24:00;;;;;;;12.82;6.50;;;6.90;84.00;;;;;;9179861;19;20018;-64
2023/02/20 01:27:04;;;;;;;;;;;6.90;84.00;;;;;;9181802;19;20020;-61
2023/02/20 01:30:11;;;;;;;20.15;8.65;;;7.00;84.10;;;;;;9178218;19;19919;-62
2023/02/20 01:33:17;;;;;;;16.27;7.15;;;7.00;84.10;;;;;;9180096;19;20773;-65
2023/02/20 01:36:23;;;;;;;13.73;6.70;;;7.00;84.10;;;;;;9180466;19;20480;-64
2023/02/20 01:39:29;;;;;;;17.27;7.22;;;7.00;84.10;;;;;;9177992;19;20027;-63
2023/02/20 01:42:36;;;;;;;15.32;8.38;;;7.00;84.10;;;;;;9181356;19;20026;-66
2023/02/20 01:45:41;;;;;;;13.52;7.63;;;7.00;84.20;;;;;;9175567;19;20022;-63
2023/02/20 01:48:49;;;;;;;14.23;7.15;;;7.00;84.10;;;;;;9178693;19;20018;-65
2023/02/20 01:51:59;;;;;;;15.07;8.20;;;7.00;84.10;;;;;;9180720;19;20014;-65
2023/02/20 01:55:09;;;;;;;17.05;8.20;;;7.00;84.10;;;;;;9180052;19;20018;-62
2023/02/20 01:58:18;;;;;;;15.38;8.15;;;7.00;84.20;;;;;;9180264;19;20329;-63
2023/02/20 02:01:24;;;;;;;19.27;8.55;;;7.00;84.20;;;;;;9180268;19;20502;-64
2023/02/20 02:04:30;;;;;;;17.10;7.95;;;6.90;84.20;;;;;;9178442;19;20018;-66
2023/02/20 02:07:37;;;;;;;21.60;8.32;;;6.90;84.20;;;;;;9179815;19;20011;-63
2023/02/20 02:10:47;;;;;;;19.20;8.70;;;6.90;84.20;;;;;;9178700;19;20018;-63
2023/02/20 02:13:54;;;;;;;16.38;8.27;;;6.90;84.20;;;;;;9179774;19;20010;-65
2023/02/20 02:17:30;;;;;;;18.38;8.98;;;6.90;84.20;;;;;;9177935;19;20048;-63
2023/02/20 02:21:18;;;;;;;22.02;9.07;;;6.90;84.20;;;;;;9175960;19;20022;-63
2023/02/20 02:24:58;;;;;;;15.25;8.63;;;6.90;84.30;;;;;;9178278;19;20033;-63
2023/02/20 02:28:35;;;;;;;15.68;9.43;;;6.90;84.30;;;;;;9177453;19;20025;-63
2023/02/20 02:32:19;;;;;;;14.50;6.55;;;6.90;84.30;;;;;;9178900;19;20026;-63
2023/02/20 02:35:54;;;;;;;19.80;10.27;;;6.90;84.30;;;;;;9177436;19;20014;-62
2023/02/20 02:39:06;;;;;;;25.23;10.00;;;6.90;84.30;;;;;;9177325;19;20400;-63
2023/02/20 02:42:21;;;;;;;18.88;9.18;;;6.90;84.30;;;;;;9176585;19;20471;-62
2023/02/20 02:45:33;;;;;;;20.83;9.07;;;6.80;84.90;;;;;;9174216;19;20057;-62
2023/02/20 02:48:45;;;;;;;19.42;9.70;;;6.80;84.30;;;;;;9176850;19;20019;-63
2023/02/20 02:51:51;;;;;;;18.00;9.57;;;6.80;84.40;;;;;;9177471;19;20018;-64
2023/02/20 02:55:00;;;;;;;16.13;9.40;;;6.80;84.40;;;;;;9175706;19;20696;-63
2023/02/20 02:58:06;;;;;;;21.08;9.02;;;6.80;84.40;;;;;;9177691;19;20409;-63
2023/02/20 03:01:12;;;;;;;18.48;9.50;;;6.80;84.50;;;;;;9177674;19;20014;-62
2023/02/20 03:04:22;;;;;;;19.52;9.50;;;6.80;84.50;;;;;;9175114;19;20010;-63
2023/02/20 03:07:29;;;;;;;18.17;9.63;;;6.80;84.50;;;;;;9177853;19;20006;-63
2023/02/20 03:10:37;;;;;;;19.52;9.38;;;6.80;84.50;;;;;;9176883;19;20014;-63
2023/02/20 03:17:10;;;;;;;28.02;9.70;;;6.80;84.60;;;;;;9177530;19;20027;-62
2023/02/20 03:20:19;;;;;;;21.75;11.02;;;6.80;84.60;;;;;;9171512;19;20018;-63
2023/02/20 03:23:30;;;;;;;27.15;10.00;;;6.90;84.70;;;;;;9176652;19;20014;-64
2023/02/20 03:26:40;;;;;;;19.55;9.23;;;6.80;84.60;;;;;;9177500;19;20010;-64
2023/02/20 03:29:44;;;;;;;18.85;9.43;;;6.90;84.70;;;;;;9176691;19;20024;-64
2023/02/20 03:43:23;;;;;;;24.37;10.07;;;6.90;84.70;;;;;;9174875;19;20022;-63
2023/02/20 03:46:34;;;;;;;20.20;9.68;;;6.90;84.80;;;;;;9170825;19;20514;-62
2023/02/20 03:49:42;;;;;;;26.38;11.68;;;6.90;84.80;;;;;;9176234;19;20015;-61
2023/02/20 03:52:51;;;;;;;23.08;10.60;;;6.90;84.80;;;;;;9174381;19;20015;-63
2023/02/20 03:55:55;;;;;;;;;;;6.90;84.80;;;;;;9176932;19;20438;-62
2023/02/20 03:59:12;;;;;;;23.23;11.55;;;6.90;84.90;;;;;;9175894;19;19922;-63
2023/02/20 04:02:21;;;;;;;27.77;12.80;;;6.90;84.80;;;;;;9180376;19;20034;-65
2023/02/20 04:05:31;;;;;;;24.80;12.82;;;6.90;84.90;;;;;;9180262;19;20022;-62
2023/02/20 04:08:39;;;;;;;31.15;13.85;;;7.00;84.90;;;;;;9183269;19;20073;-64
2023/02/20 04:11:50;;;;;;;29.42;14.43;;;7.00;85.00;;;;;;9180227;19;20022;-63
2023/02/20 04:14:59;;;;;;;32.33;14.68;;;7.00;85.00;;;;;;9181896;19;20031;-65
2023/02/20 04:18:08;;;;;;;36.17;15.65;;;7.00;85.00;;;;;;9181933;19;20021;-64
2023/02/20 04:21:26;;;;;;;35.42;16.27;;;7.00;85.00;;;;;;9176826;19;20520;-62
2023/02/20 04:24:37;;;;;;;40.10;16.90;;;7.10;85.20;;;;;;9180919;19;20022;-63
2023/02/20 04:27:41;;;;;;;35.30;17.10;;;7.10;85.10;;;;;;9182525;19;20082;-62
2023/02/20 04:30:49;;;;;;;30.75;16.17;;;7.10;85.10;;;;;;9181652;19;20471;-67
2023/02/20 04:33:54;;;;;;;32.40;16.05;;;7.10;85.10;;;;;;9178966;19;20029;-63
2023/02/20 04:37:08;;;;;;;34.10;17.10;;;7.10;85.20;;;;;;9181289;19;20014;-63
2023/02/20 04:40:13;;;;;;;43.17;18.35;;;7.20;85.30;;;;;;9183200;19;20014;-65
2023/02/20 04:43:19;;;;;;;41.28;17.15;;;7.20;85.30;;;;;;9181258;19;20110;-63
2023/02/20 04:46:25;;;;;;;35.10;17.77;;;7.20;85.30;;;;;;9178366;19;20019;-63
2023/02/20 04:49:31;;;;;;;33.97;17.98;;;7.20;85.30;;;;;;9183092;19;20368;-64
2023/02/20 04:52:38;;;;;;;36.97;19.15;;;7.30;85.30;;;;;;9180247;19;20035;-66
2023/02/20 04:55:44;;;;;;;39.83;19.13;;;7.30;85.30;;;;;;9182122;19;20030;-64
2023/02/20 04:58:51;;;;;;;41.45;18.63;;;7.30;85.30;;;;;;9180402;19;20027;-62
2023/02/20 05:02:02;;;;;;;40.20;19.55;;;7.30;85.30;;;;;;9180392;19;20026;-63
2023/02/20 05:05:15;;;;;;;49.45;19.38;;;7.40;85.40;;;;;;9179895;19;20019;-63
2023/02/20 05:08:21;;;;;;;38.33;18.08;;;7.40;85.40;;;;;;9182596;19;20018;-64
2023/02/20 05:11:25;;;;;;;38.95;18.98;;;7.40;85.40;;;;;;9179562;19;20356;-64
2023/02/20 05:14:31;;;;;;;41.20;19.08;;;7.40;85.40;;;;;;9180967;19;20025;-63
2023/02/20 05:17:37;;;;;;;;;;;7.50;85.50;;;;;;9182732;19;20014;-62
2023/02/20 05:23:59;;;;;;;36.45;18.38;;;7.50;85.40;;;;;;9182278;19;20115;-64
2023/02/20 05:27:06;;;;;;;40.50;18.83;;;7.50;85.40;;;;;;9181215;19;20029;-62
2023/02/20 05:30:11;;;;;;;44.30;19.95;;;7.50;85.50;;;;;;9180247;19;20657;-65
2023/02/20 05:33:19;;;;;;;42.33;18.60;;;7.60;85.50;;;;;;9181546;19;20606;-64
2023/02/20 05:36:23;;;;;;;43.08;19.27;;;7.60;85.60;;;;;;9180524;19;20014;-65
2023/02/20 05:39:29;;;;;;;37.78;18.70;;;7.60;85.50;;;;;;9179734;19;20018;-65
2023/02/20 05:42:32;;;;;;;41.90;18.42;;;7.60;85.50;;;;;;9181243;19;20014;-62
2023/02/20 05:45:38;;;;;;;41.60;18.65;;;7.60;85.50;;;;;;9179415;19;20460;-65
2023/02/20 05:48:44;;;;;;;;;;;7.70;85.60;;;;;;9182075;19;20357;-64
2023/02/20 05:51:51;;;;;;;39.20;17.83;;;7.70;85.60;;;;;;9178462;19;19919;-64
2023/02/20 05:54:55;;;;;;;49.85;20.10;;;7.70;85.50;;;;;;9180980;19;20022;-61
2023/02/20 05:58:01;;;;;;;42.60;18.15;;;7.70;85.50;;;;;;9180723;19;20014;-63
2023/02/20 06:01:05;;;;;;;;;;;7.80;85.60;;;;;;9181238;19;20014;-61
2023/02/20 06:04:13;;;;;;;40.15;17.45;;;7.80;85.70;;;;;;9178295;19;19922;-64
2023/02/20 06:07:17;;;;;;;51.15;19.10;;;7.80;85.50;;;;;;9180809;19;20011;-62
2023/02/20 06:10:23;;;;;;;36.28;18.63;;;7.80;85.60;;;;;;9177144;19;20018;-63
2023/02/20 06:13:27;;;;;;;41.58;18.65;;;7.80;85.60;;;;;;9178086;19;20039;-63
2023/02/20 06:16:35;;;;;;;36.85;18.70;;;7.90;85.70;;;;;;9179958;19;20026;-65
2023/02/20 06:19:41;;;;;;;41.90;19.13;;;7.90;85.70;;;;;;9173692;19;20014;-65
2023/02/20 06:22:48;;;;;;;37.55;17.75;;;7.90;85.80;;;;;;9179680;19;20018;-65
2023/02/20 06:25:52;;;;;;;39.83;18.45;;;7.90;85.80;;;;;;9176515;19;20015;-64
2023/02/20 06:28:58;;;;;;;43.35;19.70;;;7.90;85.70;;;;;;9179619;19;20022;-63
2023/02/20 06:32:01;;;;;;;;;;;7.90;85.70;;;;;;9179029;19;20025;-63
2023/02/20 06:35:10;;;;;;;43.30;19.85;;;8.00;85.80;;;;;;9179276;19;19925;-64
2023/02/20 06:38:14;;;;;;;34.03;17.35;;;8.00;85.70;;;;;;9178950;19;20026;-64
2023/02/20 06:41:20;;;;;;;41.83;19.15;;;8.00;85.70;;;;;;9178746;19;20011;-62
2023/02/20 06:44:24;;;;;;;;;;;8.00;85.70;;;;;;9180001;19;20284;-63
2023/02/20 06:47:30;;;;;;;44.53;18.17;;;8.10;85.80;;;;;;9178765;19;19919;-63
2023/02/20 06:50:35;;;;;;;;;;;8.10;85.70;;;;;;9179314;19;20015;-61
2023/02/20 06:53:41;;;;;;;38.25;17.40;;;8.10;85.70;;;;;;9178748;19;19926;-64
2023/02/20 06:56:45;;;;;;;;;;;8.10;85.60;;;;;;9179496;19;20018;-63
2023/02/20 06:59:50;;;;;;;39.00;16.27;;;8.20;85.70;;;;;;9171873;19;19979;-65
2023/02/20 07:02:54;;;;;;;;;;;8.20;85.70;;;;;;9178870;19;20019;-63
2023/02/20 07:06:02;;;;;;;46.90;18.40;;;8.20;85.80;;;;;;9175565;19;19926;-63
2023/02/20 07:09:06;;;;;;;42.83;17.48;;;8.20;85.80;;;;;;9177014;19;20015;-65
2023/02/20 07:12:12;;;;;;;43.83;17.88;;;8.20;85.70;;;;;;9164008;19;20025;-62
2023/02/20 07:15:16;;;;;;;36.97;16.75;;;8.20;85.80;;;;;;9171534;19;20026;-65
2023/02/20 07:18:26;;;;;;;42.28;18.30;;;8.30;85.90;;;;;;9163087;19;20021;-64
2023/02/20 07:21:32;;;;;;;41.60;16.77;;;8.30;85.90;;;;;;9167638;19;20102;-63
2023/02/20 07:24:40;;;;;;;36.60;17.10;;;8.30;85.90;;;;;;9163002;19;20037;-64
2023/02/20 07:27:44;;;;;;;35.30;16.95;;;8.30;85.90;;;;;;9165373;19;20070;-63
2023/02/20 07:30:50;;;;;;;41.60;16.50;;;8.30;85.90;;;;;;9171520;19;20021;-64
2023/02/20 07:33:54;;;;;;;40.53;17.00;;;8.40;85.90;;;;;;9167817;19;20030;-63
2023/02/20 07:37:02;;;;;;;37.17;16.15;;;8.40;85.90;;;;;;9162699;19;20014;-64
2023/02/20 07:40:06;;;;;;;41.60;16.98;;;8.40;85.90;;;;;;9169245;19;20110;-64
2023/02/20 07:43:12;;;;;;;42.65;16.85;;;8.50;86.00;;;;;;9164297;19;20014;-66
2023/02/20 07:46:18;;;;;;;42.53;15.43;;;8.50;86.00;;;;;;9165108;19;20030;-61
2023/02/20 07:49:25;;;;;;;40.38;14.38;;;8.50;86.00;;;;;;9170665;19;20045;-67
2023/02/20 07:52:31;;;;;;;35.05;14.77;;;8.60;86.00;;;;;;9173587;19;20039;-62
2023/02/20 07:55:37;;;;;;;38.45;13.95;;;8.60;86.00;;;;;;9172722;19;20042;-62
2023/02/20 07:58:41;;;;;;;;;;;8.60;86.60;;;;;;9175380;19;20839;-61
2023/02/20 08:01:47;;;;;;;39.70;14.48;;;8.60;86.00;;;;;;9175494;19;19933;-62
2023/02/20 08:04:50;;;;;;;;;;;8.70;85.90;;;;;;9175445;19;20364;-63
2023/02/20 08:07:58;;;;;;;28.08;13.10;;;8.70;86.00;;;;;;9175268;19;19933;-63
2023/02/20 08:11:02;;;;;;;33.33;13.20;;;8.70;85.90;;;;;;9162344;19;20034;-62
2023/02/20 08:14:16;;;;;;;31.33;13.32;;;8.80;86.00;;;;;;9157813;19;20025;-63
2023/02/20 08:17:20;;;;;;;31.55;13.05;;;8.80;86.10;;;;;;9157229;19;20143;-65
2023/02/20 08:20:26;;;;;;;30.10;12.75;;;8.80;86.10;;;;;;9157485;19;20010;-65
2023/02/20 08:23:31;;;;;;;;;;;8.80;86.10;;;;;;9168999;19;20368;-65
2023/02/20 08:26:44;;;;;;;28.88;11.43;;;8.90;86.10;;;;;;9164444;19;19930;-64
2023/02/20 08:29:48;;;;;;;26.40;10.50;;;8.90;86.00;;;;;;9170255;19;20046;-65
2023/02/20 08:32:54;;;;;;;39.92;11.88;;;8.90;86.00;;;;;;9170107;19;20015;-64
2023/02/20 08:35:59;;;;;;;27.08;10.32;;;9.00;86.10;;;;;;9163614;19;20026;-66
2023/02/20 08:39:07;;;;;;;27.75;10.77;;;9.00;86.10;;;;;;9165844;19;20021;-62
2023/02/20 08:42:10;;;;;;;25.17;10.50;;;9.00;86.10;;;;;;9164972;19;20437;-63
2023/02/20 08:45:16;;;;;;;29.75;10.30;;;9.00;86.10;;;;;;9162330;19;20494;-67
2023/02/20 08:48:20;;;;;;;28.85;9.80;;;9.10;86.20;;;;;;9168228;19;20041;-64
2023/02/20 08:51:27;;;;;;;23.27;8.75;;;9.10;86.20;;;;;;9173199;19;20014;-65
2023/02/20 08:54:33;;;;;;;35.80;10.07;;;9.20;86.20;;;;;;9173508;19;20026;-64
2023/02/20 08:57:39;;;;;;;32.78;9.52;;;9.20;86.20;;;;;;9180461;19;20018;-65
2023/02/20 09:00:43;;;;;;;23.50;8.98;;;9.20;86.20;;;;;;9175581;19;20023;-65
2023/02/20 09:03:50;;;;;;;25.83;8.25;;;9.30;86.20;;;;;;9173049;19;20356;-66
2023/02/20 09:06:54;;;;;;;26.85;9.10;;;9.30;86.20;;;;;;9172291;19;20034;-62
2023/02/20 09:10:01;;;;;;;29.00;9.07;;;9.30;86.20;;;;;;9173261;19;20376;-62
2023/02/20 09:13:06;;;;;;;19.95;8.15;;;9.40;86.20;;;;;;9174226;19;20010;-66
2023/02/20 09:16:12;;;;;;;28.23;8.48;;;9.40;86.10;;;;;;9173027;19;20022;-63
2023/02/20 09:19:17;;;;;;;17.55;7.30;;;9.40;86.10;;;;;;9165022;19;20035;-67
2023/02/20 09:22:24;;;;;;;29.15;8.77;;;9.40;86.10;;;;;;9173717;19;20014;-64
2023/02/20 09:25:30;;;;;;;20.88;7.43;;;9.50;86.20;;;;;;9172778;19;20014;-67
2023/02/20 09:28:36;;;;;;;25.92;8.25;;;9.50;86.20;;;;;;9168951;19;20014;-66
2023/02/20 09:31:39;;;;;;;;;;;9.50;86.20;;;;;;9170971;19;20019;-66
2023/02/20 09:34:45;;;;;;;35.45;9.77;;;9.50;86.20;;;;;;9169122;19;19915;-66
2023/02/20 09:37:49;;;;;;;29.20;7.97;;;9.60;86.10;;;;;;9169038;19;20025;-65
2023/02/20 09:41:00;;;;;;;19.60;8.23;;;9.60;86.20;;;;;;9166355;19;20018;-65
2023/02/20 09:44:12;;;;;;;23.42;7.68;;;9.60;86.20;;;;;;9169596;19;20063;-64
2023/02/20 09:47:35;;;;;;;23.80;6.75;;;9.70;86.20;;;;;;9163364;19;20033;-65
2023/02/20 09:50:45;;;;;;;18.27;7.38;;;9.70;86.20;;;;;;9166341;19;20053;-65
2023/02/20 09:53:58;;;;;;;30.25;7.43;;;9.70;86.20;;;;;;9167419;19;20448;-63
2023/02/20 09:57:07;;;;;;;18.65;7.35;;;9.80;86.20;;;;;;9165312;19;20491;-66
2023/02/20 10:00:18;;;;;;;21.33;7.72;;;9.80;86.10;;;;;;9164125;19;20017;-68
2023/02/20 10:03:29;;;;;;;22.00;7.22;;;9.80;86.10;;;;;;9165738;19;20015;-64
2023/02/20 10:06:36;;;;;;;23.95;7.82;;;9.80;86.10;;;;;;9163643;19;20011;-67
2023/02/20 10:09:40;;;;;;;22.55;7.90;;;9.80;86.10;;;;;;9165395;19;20503;-64
2023/02/20 10:12:56;;;;;;;27.95;7.25;;;9.90;86.20;;;;;;9162438;19;20019;-63
2023/02/20 10:16:09;;;;;;;20.83;6.97;;;9.90;86.20;;;;;;9166318;19;20023;-63
2023/02/20 10:19:24;;;;;;;22.85;8.02;;;9.90;86.20;;;;;;9161931;19;20009;-65
2023/02/20 10:22:34;;;;;;;23.13;8.20;;;10.00;86.20;;;;;;9172405;19;20015;-67
2023/02/20 10:25:44;;;;;;;20.45;7.47;;;10.00;86.20;;;;;;9167621;19;20047;-64
2023/02/20 10:28:51;;;;;;;19.08;7.78;;;10.10;86.20;;;;;;9168388;19;20029;-63
2023/02/20 10:32:03;;;;;;;24.58;7.88;;;10.10;86.20;;;;;;9170448;19;20015;-63
2023/02/20 10:35:10;;;;;;;30.48;8.27;;;10.10;86.20;;;;;;9175604;19;20026;-64
2023/02/20 10:38:22;;;;;;;20.27;7.53;;;10.10;86.10;;;;;;9174988;19;20015;-64
2023/02/20 10:41:32;;;;;;;25.13;8.43;;;10.10;86.10;;;;;;9170499;19;20013;-66
2023/02/20 10:44:46;;;;;;;20.83;7.55;;;10.20;86.10;;;;;;9169943;19;20022;-65
2023/02/20 10:48:02;;;;;;;28.70;8.85;;;10.20;86.10;;;;;;9169891;19;20029;-65
2023/02/20 10:51:12;;;;;;;24.20;8.43;;;10.20;86.00;;;;;;9171296;19;20019;-66
2023/02/20 10:54:20;;;;;;;22.77;8.40;;;10.30;86.10;;;;;;9169996;19;20539;-61
2023/02/20 10:57:31;;;;;;;24.75;8.40;;;10.30;86.10;;;;;;9169411;19;20025;-65
2023/02/20 11:00:41;;;;;;;22.27;8.02;;;10.30;86.00;;;;;;9169040;19;20126;-63
2023/02/20 11:03:53;;;;;;;22.45;9.07;;;10.30;86.00;;;;;;9166455;19;20014;-67
2023/02/20 11:07:10;;;;;;;18.83;7.35;;;10.30;86.00;;;;;;9167738;19;20030;-63
2023/02/20 11:10:16;;;;;;;26.83;8.55;;;10.30;86.00;;;;;;9164675;19;20025;-64
2023/02/20 11:13:24;;;;;;;25.73;8.48;;;10.30;86.00;;;;;;9171389;19;20868;-64
2023/02/20 11:16:37;;;;;;;24.50;7.97;;;10.30;86.00;;;;;;9169045;19;20018;-63
2023/02/20 11:19:44;;;;;;;26.48;7.30;;;10.30;86.00;;;;;;9163923;19;20090;-63
2023/02/20 11:22:50;;;;;;;23.80;7.43;;;10.40;86.10;;;;;;9168766;19;20021;-64
2023/02/20 11:25:54;;;;;;;17.80;7.00;;;10.40;86.00;;;;;;9167023;19;20482;-64
2023/02/20 11:29:07;;;;;;;16.30;7.60;;;10.30;86.00;;;;;;9167124;19;20029;-70
2023/02/20 11:32:41;;;;;;;26.98;7.45;;;10.40;86.00;;;;;;9170321;19;20033;-65
2023/02/20 11:35:50;;;;;;;21.48;7.47;;;10.40;86.00;;;;;;9164371;19;20025;-66
2023/02/20 11:39:00;;;;;;;21.00;7.47;;;10.40;85.90;;;;;;9166001;19;20359;-66
2023/02/20 11:42:11;;;;;;;22.48;8.40;;;10.40;86.00;;;;;;9167598;19;20364;-64
2023/02/20 11:45:17;;;;;;;24.23;7.80;;;10.40;86.00;;;;;;9164408;19;20427;-65
2023/02/20 11:48:24;;;;;;;19.27;7.90;;;10.40;85.90;;;;;;9166933;19;20026;-64
2023/02/20 11:51:38;;;;;;;25.27;7.88;;;10.40;86.00;;;;;;9166169;19;20022;-67
2023/02/20 11:54:44;;;;;;;22.77;7.90;;;10.40;86.00;;;;;;9167055;19;20018;-66
2023/02/20 11:57:49;;;;;;;25.35;8.93;;;10.40;86.00;;;;;;9159024;19;20497;-65
2023/02/20 12:00:56;;;;;;;17.73;7.95;;;10.40;86.00;;;;;;9160343;19;20010;-66
2023/02/20 12:04:02;;;;;;;23.85;8.10;;;10.40;86.00;;;;;;9158442;19;20022;-68
2023/02/20 12:07:20;;;;;;;23.65;8.98;;;10.40;86.00;;;;;;9157845;19;20472;-64
2023/02/20 12:10:40;;;;;;;28.02;8.70;;;10.40;86.00;;;;;;9159172;19;20029;-64
2023/02/20 12:13:47;;;;;;;20.58;8.20;;;10.40;86.00;;;;;;9160247;19;20018;-68
2023/02/20 12:17:10;;;;;;;21.73;8.32;;;10.40;86.00;;;;;;9162202;19;20145;-65
2023/02/20 12:20:20;;;;;;;25.10;9.60;;;10.40;86.00;;;;;;9154916;19;20011;-66
2023/02/20 12:23:33;;;;;;;18.88;7.40;;;10.40;85.90;;;;;;9162587;19;20018;-69
2023/02/20 12:26:50;;;;;;;19.15;7.70;;;10.40;86.00;;;;;;9167399;19;20010;-65
2023/02/20 12:30:07;;;;;;;17.60;7.63;;;10.40;85.90;;;;;;9166978;19;20022;-66
2023/02/20 12:33:36;;;;;;;23.90;8.55;;;10.40;86.00;;;;;;9166114;19;20153;-65
2023/02/20 12:36:44;;;;;;;19.35;7.78;;;10.40;86.00;;;;;;9167488;19;20695;-67
2023/02/20 12:40:00;;;;;;;25.85;8.15;;;10.40;85.90;;;;;;9167390;19;20353;-68
2023/02/20 12:43:15;;;;;;;27.73;7.82;;;10.40;85.90;;;;;;9167578;19;20035;-65
2023/02/20 12:46:25;;;;;;;24.67;8.98;;;10.40;85.90;;;;;;9159728;19;20021;-67
2023/02/20 12:49:55;;;;;;;15.95;8.18;;;10.40;86.00;;;;;;9157610;19;20010;-67
2023/02/20 12:53:20;;;;;;;21.10;8.63;;;10.40;86.00;;;;;;9157475;19;20025;-66
2023/02/20 12:56:38;;;;;;;17.58;9.43;;;10.40;86.00;;;;;;9152951;19;20018;-68
2023/02/20 12:59:55;;;;;;;17.27;9.20;;;10.40;85.90;;;;;;9160423;19;20364;-69
2023/02/20 13:03:07;;;;;;;19.05;9.40;;;10.40;85.90;;;;;;9165901;19;20025;-69
2023/02/20 13:06:18;;;;;;;25.45;9.88;;;10.40;86.00;;;;;;9159842;19;20506;-66
2023/02/20 13:09:27;;;;;;;24.48;10.35;;;10.40;85.90;;;;;;9161485;19;20034;-67
2023/02/20 13:12:33;;;;;;;19.35;10.48;;;10.40;85.90;;;;;;9161671;19;20629;-67
2023/02/20 13:15:39;;;;;;;;;;;10.40;86.00;;;;;;9168018;19;20018;-64
2023/02/20 13:18:49;;;;;;;26.52;10.40;;;10.40;86.00;;;;;;9172821;19;19929;-69
2023/02/20 13:22:01;;;;;;;26.52;12.07;;;10.40;86.00;;;;;;9175066;19;20022;-66
2023/02/20 13:25:38;;;;;;;32.13;12.60;;;10.40;86.00;;;;;;9174112;19;20019;-65
2023/02/20 13:28:46;;;;;;;32.65;13.05;;;10.40;85.90;;;;;;9176565;19;20018;-65
2023/02/20 13:31:53;;;;;;;26.05;12.38;;;10.40;85.90;;;;;;9171757;19;20018;-64
2023/02/20 13:35:27;;;;;;;23.73;12.30;;;10.40;85.90;;;;;;9170518;19;20018;-65
2023/02/20 13:38:34;;;;;;;18.45;12.40;;;10.40;86.00;;;;;;9171751;19;20015;-66
2023/02/20 13:42:01;;;;;;;24.95;11.63;;;10.40;85.90;;;;;;9169112;19;20022;-67
2023/02/20 13:45:41;;;;;;;24.30;12.40;;;10.40;86.00;;;;;;9173961;19;20010;-65
2023/02/20 13:48:48;;;;;;;25.23;12.40;;;10.40;86.00;;;;;;9166538;19;20014;-66
2023/02/20 13:51:55;;;;;;;24.67;13.10;;;10.40;86.00;;;;;;9169098;19;20016;-66
2023/02/20 13:55:02;;;;;;;24.95;12.77;;;10.40;86.00;;;;;;9172848;19;20014;-68
2023/02/20 13:58:13;;;;;;;27.92;13.27;;;10.40;86.00;;;;;;9170608;19;20019;-64
2023/02/20 14:01:19;;;;;;;22.98;12.75;;;10.40;86.00;;;;;;9169315;19;20849;-67
2023/02/20 14:04:26;;;;;;;24.55;13.55;;;10.40;86.00;;;;;;9166167;19;20018;-65
2023/02/20 14:07:33;;;;;;;22.08;13.85;;;10.40;86.10;;;;;;9169450;19;20031;-65
2023/02/20 14:10:44;;;;;;;25.20;13.98;;;10.40;86.00;;;;;;9169749;19;20019;-66
2023/02/20 14:13:52;;;;;;;24.75;14.25;;;10.40;86.00;;;;;;9170927;19;20014;-66
2023/02/20 14:17:08;;;;;;;23.63;14.02;;;10.40;86.00;;;;;;9169798;19;20029;-66
2023/02/20 14:20:23;;;;;;;29.25;13.82;;;10.40;86.00;;;;;;9165545;19;20522;-65
2023/02/20 14:23:32;;;;;;;23.20;13.35;;;10.40;86.10;;;;;;9169408;19;20029;-69
2023/02/20 14:26:36;;;;;;;22.95;13.95;;;10.40;86.10;;;;;;9167204;19;20018;-65
2023/02/20 14:29:42;;;;;;;25.50;13.65;;;10.40;86.00;;;;;;9172596;19;20018;-65
2023/02/20 14:32:50;;;;;;;22.13;13.55;;;10.50;86.10;;;;;;9177924;19;20869;-64
2023/02/20 14:36:28;;;;;;;25.13;13.80;;;10.50;86.10;;;;;;9174617;19;20010;-64
2023/02/20 14:39:49;;;;;;;22.88;13.73;;;10.50;86.10;;;;;;9173226;19;20022;-65
2023/02/20 14:43:02;;;;;;;30.52;15.23;;;10.50;86.00;;;;;;9178482;19;20030;-65
2023/02/20 14:46:08;;;;;;;31.10;14.40;;;10.50;86.00;;;;;;9176941;19;20022;-66
2023/02/20 14:49:23;;;;;;;29.13;14.70;;;10.50;86.00;;;;;;9178041;19;20014;-66
2023/02/20 14:52:28;;;;;;;27.17;15.32;;;10.50;86.00;;;;;;9171894;19;20018;-65
2023/02/20 14:55:34;;;;;;;24.60;14.43;;;10.50;86.00;;;;;;9170047;19;20022;-68
2023/02/20 14:58:39;;;;;;;;;;;10.60;86.00;;;;;;9175195;19;20033;-66
2023/02/20 15:01:45;;;;;;;28.40;16.17;;;10.60;86.00;;;;;;9174900;19;19919;-66
2023/02/20 15:04:52;;;;;;;;;;;10.60;85.90;;;;;;9174202;19;20021;-65
2023/02/20 15:08:03;;;;;;;26.67;15.80;;;10.60;86.00;;;;;;9170132;19;19929;-63
2023/02/20 15:11:10;;;;;;;31.65;14.73;;;10.60;85.90;;;;;;9173190;19;20086;-65
2023/02/20 15:14:22;;;;;;;27.02;14.75;;;10.60;85.90;;;;;;9171664;19;20010;-66
2023/02/20 15:17:27;;;;;;;28.90;14.70;;;10.60;85.90;;;;;;9172371;19;20026;-64
2023/02/20 15:20:41;;;;;;;30.25;15.93;;;10.60;85.90;;;;;;9164549;19;20014;-65
2023/02/20 15:23:46;;;;;;;30.20;14.90;;;10.70;86.00;;;;;;9166636;19;20681;-64
2023/02/20 15:26:53;;;;;;;26.95;14.70;;;10.60;85.90;;;;;;9167664;19;20010;-65
2023/02/20 15:30:15;;;;;;;23.25;14.82;;;10.60;85.90;;;;;;9173861;19;20018;-65
2023/02/20 15:33:21;;;;;;;31.20;15.10;;;10.60;85.90;;;;;;9174366;19;20019;-66
2023/02/20 15:36:27;;;;;;;;;;;10.60;85.90;;;;;;9169722;19;20018;-67
2023/02/20 15:39:40;;;;;;;28.25;14.50;;;10.60;85.90;;;;;;9166351;19;19922;-67
2023/02/20 15:42:44;;;;;;;23.58;14.90;;;10.60;85.80;;;;;;9164116;19;20018;-66
2023/02/20 15:45:50;;;;;;;36.50;15.60;;;10.70;85.90;;;;;;9167205;19;20010;-65
2023/02/20 15:48:54;;;;;;;25.30;14.00;;;10.60;85.90;;;;;;9173544;19;20038;-66
2023/02/20 15:52:06;;;;;;;32.13;15.55;;;10.60;85.90;;;;;;9173422;19;20014;-68
2023/02/20 15:55:17;;;;;;;27.67;15.50;;;10.70;85.90;;;;;;9173236;19;20047;-65
2023/02/20 15:58:26;;;;;;;26.85;15.45;;;10.70;85.90;;;;;;9181824;19;20024;-65
2023/02/20 16:01:36;;;;;;;21.92;15.65;;;10.70;86.00;;;;;;9177234;19;21276;-65
2023/02/20 16:04:42;;;;;;;35.55;16.63;;;10.70;85.90;;;;;;9183152;19;20022;-64
2023/02/20 16:07:48;;;;;;;27.80;15.93;;;10.70;85.90;;;;;;9181266;19;20014;-65
2023/02/20 16:10:55;;;;;;;30.15;16.15;;;10.70;86.00;;;;;;9181142;19;20472;-65
2023/02/20 16:14:01;;;;;;;29.63;16.38;;;10.70;85.90;;;;;;9175606;19;20026;-66
2023/02/20 16:17:10;;;;;;;35.78;17.88;;;10.70;86.00;;;;;;9171783;19;20014;-65
2023/02/20 16:20:16;;;;;;;28.52;15.95;;;10.70;85.90;;;;;;9171452;19;20018;-66
2023/02/20 16:23:24;;;;;;;31.73;17.25;;;10.70;85.90;;;;;;9169634;19;20014;-66
2023/02/20 16:26:31;;;;;;;35.85;19.20;;;10.70;85.90;;;;;;9166456;19;20017;-67
2023/02/20 16:29:38;;;;;;;32.15;17.98;;;10.70;85.90;;;;;;9169806;19;20006;-67
2023/02/20 16:32:43;;;;;;;31.75;18.63;;;10.70;85.90;;;;;;9169309;19;20034;-66
2023/02/20 16:35:51;;;;;;;33.55;17.58;;;10.70;85.90;;;;;;9174370;19;20018;-65
2023/02/20 16:39:00;;;;;;;37.13;19.83;;;10.70;85.80;;;;;;9170570;19;20023;-66